createdAt,value
2023-03-27T00:01:28.873Z,85.35
2023-03-27T00:03:57.526Z,85.97
2023-03-27T00:06:25.454Z,86.80
2023-03-27T00:08:53.525Z,86.74
2023-03-27T00:11:22.142Z,88.07
2023-03-27T00:13:50.870Z,86.93
2023-03-27T00:16:20.379Z,86.28
2023-03-27T00:18:48.380Z,85.66
2023-03-27T00:21:16.318Z,85.42
2023-03-27T00:23:44.216Z,86.45
2023-03-27T00:26:12.327Z,87.03
2023-03-27T00:28:40.029Z,87.49
2023-03-27T00:31:15.199Z,87.28
2023-03-27T00:33:43.512Z,87.67
2023-03-27T00:36:11.608Z,87.81
2023-03-27T00:38:39.248Z,88.29
2023-03-27T00:41:07.662Z,89.53
2023-03-27T00:43:43.015Z,89.96
2023-03-27T00:46:33.017Z,89.92
2023-03-27T00:49:04.330Z,89.79
2023-03-27T00:51:32.841Z,89.05
2023-03-27T00:54:00.653Z,89.72
2023-03-27T00:56:28.781Z,92.79
2023-03-27T00:59:00.926Z,94.41
2023-03-27T01:01:30.251Z,93.79
2023-03-27T01:04:00.915Z,94.15
2023-03-27T01:06:30.160Z,94.89
2023-03-27T01:08:58.759Z,91.54
2023-03-27T01:12:09.548Z,89.12
2023-03-27T01:14:52.715Z,89.44
2023-03-27T01:17:49.629Z,90.69
2023-03-27T01:20:56.590Z,90.82
2023-03-27T01:24:08.378Z,90.32
2023-03-27T01:26:42.281Z,90.57
2023-03-27T01:29:45.382Z,89.55
2023-03-27T01:32:40.946Z,90.17
2023-03-27T01:35:23.522Z,91.36
2023-03-27T01:37:57.223Z,90.36
2023-03-27T01:40:25.171Z,90.41
2023-03-27T01:43:04.344Z,90.53
2023-03-27T01:46:03.688Z,90.48
2023-03-27T01:48:39.048Z,91.21
2023-03-27T01:51:11.906Z,91.61
2023-03-27T01:53:48.803Z,92.27
2023-03-27T01:56:20.785Z,92.44
2023-03-27T01:58:50.054Z,91.67
2023-03-27T02:01:22.057Z,91.38
2023-03-27T02:03:53.671Z,91.55
2023-03-27T02:06:30.672Z,90.54
2023-03-27T02:09:03.448Z,89.72
2023-03-27T02:11:36.947Z,88.99
2023-03-27T02:14:09.264Z,88.86
2023-03-27T02:16:40.895Z,88.50
2023-03-27T02:19:14.264Z,88.00
2023-03-27T02:21:42.217Z,88.37
2023-03-27T02:24:10.370Z,86.91
2023-03-27T02:26:39.770Z,87.29
2023-03-27T02:29:18.825Z,88.07
2023-03-27T02:32:02.638Z,88.26
2023-03-27T02:34:30.423Z,88.76
2023-03-27T02:37:03.111Z,88.58
2023-03-27T02:39:51.678Z,88.08
2023-03-27T02:42:37.954Z,88.36
2023-03-27T02:45:45.056Z,88.48
2023-03-27T02:48:35.558Z,89.39
2023-03-27T02:51:08.148Z,91.22
2023-03-27T02:53:41.183Z,92.80
2023-03-27T02:56:09.911Z,92.75
2023-03-27T02:58:42.892Z,92.58
2023-03-27T03:01:12.045Z,92.74
2023-03-27T03:03:46.726Z,91.96
2023-03-27T03:06:14.832Z,92.75
2023-03-27T03:08:43.569Z,93.35
2023-03-27T03:11:13.348Z,93.02
2023-03-27T03:13:41.468Z,94.02
2023-03-27T03:16:09.772Z,95.38
2023-03-27T03:18:37.578Z,94.56
2023-03-27T03:21:05.497Z,93.53
2023-03-27T03:23:33.658Z,94.76
2023-03-27T03:26:01.823Z,94.30
2023-03-27T03:28:32.118Z,94.62
2023-03-27T03:31:00.751Z,94.74
2023-03-27T03:33:28.915Z,95.76
2023-03-27T03:35:57.726Z,95.78
2023-03-27T03:38:25.764Z,95.74
2023-03-27T03:40:55.565Z,95.35
2023-03-27T03:43:25.516Z,96.19
2023-03-27T03:45:54.643Z,95.82
2023-03-27T03:48:22.915Z,95.24
2023-03-27T03:50:50.959Z,95.39
2023-03-27T03:53:20.990Z,95.67
2023-03-27T03:55:51.066Z,95.43
2023-03-27T03:58:19.399Z,94.70
2023-03-27T04:00:47.216Z,95.47
2023-03-27T04:03:20.353Z,95.23
2023-03-27T04:05:48.101Z,94.56
2023-03-27T04:08:16.130Z,94.95
2023-03-27T04:10:45.462Z,94.70
2023-03-27T04:13:13.849Z,94.85
2023-03-27T04:15:45.743Z,94.88
2023-03-27T04:18:14.633Z,94.57
2023-03-27T04:20:42.696Z,95.07
2023-03-27T04:23:10.892Z,94.89
2023-03-27T04:25:38.681Z,94.29
2023-03-27T04:28:06.755Z,94.43
2023-03-27T04:30:35.936Z,94.59
2023-03-27T04:33:06.451Z,95.04
2023-03-27T04:35:35.065Z,95.84
2023-03-27T04:38:03.009Z,95.40
2023-03-27T04:40:31.475Z,95.61
2023-03-27T04:42:59.539Z,94.74
2023-03-27T04:45:27.250Z,95.04
2023-03-27T04:47:55.633Z,95.12
2023-03-27T04:50:24.890Z,95.90
2023-03-27T04:52:59.569Z,94.97
2023-03-27T04:55:28.935Z,94.92
2023-03-27T04:57:56.715Z,95.47
2023-03-27T05:00:24.943Z,95.12
2023-03-27T05:02:55.199Z,96.52
2023-03-27T05:05:23.841Z,95.75
2023-03-27T05:07:52.008Z,95.38
2023-03-27T05:10:22.251Z,95.37
2023-03-27T05:12:51.430Z,95.51
2023-03-27T05:15:19.868Z,95.54
2023-03-27T05:17:48.324Z,94.61
2023-03-27T05:20:16.798Z,95.38
2023-03-27T05:22:45.948Z,95.88
2023-03-27T05:25:16.540Z,95.87
2023-03-27T05:27:47.941Z,95.87
2023-03-27T05:30:21.091Z,95.12
2023-03-27T05:32:50.929Z,95.63
2023-03-27T05:35:21.438Z,95.34
2023-03-27T05:37:51.600Z,94.87
2023-03-27T05:40:24.444Z,96.33
2023-03-27T05:42:52.428Z,95.10
2023-03-27T05:45:21.999Z,95.36
2023-03-27T05:47:52.401Z,95.32
2023-03-27T05:50:23.872Z,95.61
2023-03-27T05:53:03.986Z,95.59
2023-03-27T05:55:32.544Z,95.40
2023-03-27T05:58:01.140Z,95.21
2023-03-27T06:00:29.133Z,95.25
2023-03-27T06:02:59.011Z,95.17
2023-03-27T06:05:32.435Z,95.77
2023-03-27T06:08:02.793Z,95.94
2023-03-27T06:10:30.968Z,95.64
2023-03-27T06:13:01.324Z,95.02
2023-03-27T06:15:29.614Z,94.74
2023-03-27T06:17:58.766Z,94.50
2023-03-27T06:20:31.099Z,95.70
2023-03-27T06:23:00.734Z,95.03
2023-03-27T06:25:30.929Z,94.93
2023-03-27T06:27:59.160Z,95.38
2023-03-27T06:30:27.224Z,95.61
2023-03-27T06:32:59.080Z,95.31
2023-03-27T06:35:29.433Z,95.42
2023-03-27T06:37:58.063Z,95.65
2023-03-27T06:40:28.220Z,94.63
2023-03-27T06:43:09.624Z,94.66
2023-03-27T06:45:42.517Z,94.09
2023-03-27T06:48:20.519Z,94.88
2023-03-27T06:50:50.960Z,94.91
2023-03-27T06:55:50.692Z,94.53
2023-03-27T06:58:19.288Z,94.27
2023-03-27T07:00:47.979Z,95.87
2023-03-27T07:03:16.746Z,95.82
2023-03-27T07:05:45.652Z,95.48
2023-03-27T07:08:23.160Z,94.44
2023-03-27T07:11:08.025Z,94.37
2023-03-27T07:13:40.008Z,94.04
2023-03-27T07:16:10.562Z,94.00
2023-03-27T07:18:38.378Z,95.09
2023-03-27T07:21:07.482Z,94.84
2023-03-27T07:23:35.434Z,94.66
2023-03-27T07:26:03.419Z,94.47
2023-03-27T07:28:32.015Z,94.56
2023-03-27T07:31:25.983Z,94.57
2023-03-27T07:34:00.718Z,94.61
2023-03-27T07:36:29.291Z,95.54
2023-03-27T07:38:57.124Z,95.14
2023-03-27T07:41:25.283Z,95.45
2023-03-27T07:43:54.551Z,95.12
2023-03-27T07:46:22.664Z,95.97
2023-03-27T07:48:51.100Z,95.45
2023-03-27T07:51:19.889Z,95.88
2023-03-27T07:53:47.734Z,95.35
2023-03-27T07:56:16.042Z,95.63
2023-03-27T07:58:44.274Z,95.99
2023-03-27T08:01:17.757Z,95.70
2023-03-27T08:03:46.638Z,94.69
2023-03-27T08:06:14.509Z,94.37
2023-03-27T08:08:42.513Z,94.85
2023-03-27T08:11:23.051Z,95.14
2023-03-27T08:13:55.470Z,94.77
2023-03-27T08:16:23.475Z,95.01
2023-03-27T08:18:51.593Z,94.32
2023-03-27T08:21:19.599Z,94.56
2023-03-27T08:23:50.130Z,93.99
2023-03-27T08:26:21.753Z,93.72
2023-03-27T08:28:49.944Z,94.43
2023-03-27T08:31:17.957Z,93.62
2023-03-27T08:33:46.042Z,94.29
2023-03-27T08:36:14.726Z,93.21
2023-03-27T08:38:42.872Z,94.00
2023-03-27T08:41:35.626Z,92.63
2023-03-27T08:44:06.570Z,93.41
2023-03-27T08:46:48.305Z,93.55
2023-03-27T08:49:21.099Z,93.61
2023-03-27T08:52:03.215Z,94.45
2023-03-27T08:54:38.437Z,94.04
2023-03-27T08:57:17.454Z,93.50
2023-03-27T08:59:46.354Z,92.85
2023-03-27T09:02:29.662Z,92.39
2023-03-27T09:05:06.013Z,93.47
2023-03-27T09:07:51.519Z,94.14
2023-03-27T09:10:23.108Z,93.63
2023-03-27T09:13:04.017Z,94.44
2023-03-27T09:16:01.271Z,94.83
2023-03-27T09:18:38.438Z,94.60
2023-03-27T09:21:35.600Z,93.84
2023-03-27T09:24:08.045Z,94.11
2023-03-27T09:26:37.138Z,95.57
2023-03-27T09:29:21.925Z,95.42
2023-03-27T09:31:51.810Z,95.56
2023-03-27T09:34:28.830Z,95.23
2023-03-27T09:36:59.254Z,94.95
2023-03-27T09:39:32.505Z,96.36
2023-03-27T09:42:28.570Z,95.85
2023-03-27T09:45:00.768Z,95.36
2023-03-27T09:47:56.234Z,95.30
2023-03-27T09:50:43.336Z,95.44
2023-03-27T09:53:19.398Z,95.23
2023-03-27T09:56:10.658Z,95.25
2023-03-27T09:58:46.573Z,95.74
2023-03-27T10:01:27.869Z,95.32
2023-03-27T10:03:58.320Z,95.08
2023-03-27T10:06:30.490Z,95.14
2023-03-27T10:08:59.747Z,95.76
2023-03-27T10:11:33.496Z,95.11
2023-03-27T10:14:02.272Z,96.43
2023-03-27T10:16:39.462Z,96.61
2023-03-27T10:19:20.247Z,96.03
2023-03-27T10:21:48.871Z,96.67
2023-03-27T10:24:32.754Z,97.85
2023-03-27T10:27:07.533Z,97.93
2023-03-27T10:29:38.951Z,98.37
2023-03-27T10:32:12.006Z,98.79
2023-03-27T10:34:52.110Z,98.51
2023-03-27T10:37:25.996Z,98.66
2023-03-27T10:39:59.190Z,99.29
2023-03-27T10:42:28.209Z,98.75
2023-03-27T10:44:56.310Z,98.31
2023-03-27T10:47:31.336Z,97.75
2023-03-27T10:50:23.441Z,97.89
2023-03-27T10:53:03.400Z,97.68
2023-03-27T10:56:01.007Z,96.55
2023-03-27T10:58:38.196Z,97.07
2023-03-27T11:01:26.887Z,97.18
2023-03-27T11:04:06.872Z,96.30
2023-03-27T11:06:41.722Z,95.87
2023-03-27T11:09:32.484Z,96.38
2023-03-27T11:12:07.031Z,97.10
2023-03-27T11:15:05.301Z,96.52
2023-03-27T11:17:41.737Z,95.51
2023-03-27T11:20:22.486Z,95.74
2023-03-27T11:23:10.255Z,95.79
2023-03-27T11:25:45.956Z,95.53
2023-03-27T11:28:24.295Z,95.75
2023-03-27T11:31:14.830Z,96.09
2023-03-27T11:33:49.215Z,95.51
2023-03-27T11:36:35.594Z,94.80
2023-03-27T11:39:16.200Z,94.12
2023-03-27T11:41:53.334Z,95.21
2023-03-27T11:44:22.368Z,94.62
2023-03-27T11:47:01.671Z,95.50
2023-03-27T11:50:13.130Z,95.73
2023-03-27T11:52:48.085Z,95.55
2023-03-27T11:55:24.338Z,96.24
2023-03-27T11:57:58.243Z,95.87
2023-03-27T12:00:34.966Z,96.49
2023-03-27T12:03:24.332Z,95.75
2023-03-27T12:06:05.608Z,95.66
2023-03-27T12:08:52.386Z,96.15
2023-03-27T12:11:21.987Z,96.28
2023-03-27T12:14:17.754Z,96.59
2023-03-27T12:17:04.593Z,97.09
2023-03-27T12:19:44.932Z,96.26
2023-03-27T12:22:24.344Z,96.08
2023-03-27T12:25:17.121Z,96.26
2023-03-27T12:27:59.885Z,96.76
2023-03-27T12:30:38.030Z,96.15
2023-03-27T12:33:31.348Z,95.39
2023-03-27T12:36:02.136Z,95.53
2023-03-27T12:38:31.767Z,95.78
2023-03-27T12:41:09.390Z,95.52
2023-03-27T12:43:43.481Z,95.16
2023-03-27T12:46:24.184Z,94.55
2023-03-27T12:49:00.717Z,95.59
2023-03-27T12:51:42.321Z,95.96
2023-03-27T12:54:36.023Z,95.22
2023-03-27T12:57:23.330Z,95.01
2023-03-27T12:59:56.396Z,95.24
2023-03-27T13:02:42.738Z,94.65
2023-03-27T13:05:27.765Z,93.92
2023-03-27T13:07:59.940Z,94.18
2023-03-27T13:10:29.562Z,94.16
2023-03-27T13:13:22.180Z,94.16
2023-03-27T13:16:22.143Z,93.74
2023-03-27T13:19:24.648Z,93.08
2023-03-27T13:22:24.839Z,93.27
2023-03-27T13:25:01.961Z,94.12
2023-03-27T13:27:32.858Z,92.54
2023-03-27T13:30:01.473Z,91.59
2023-03-27T13:32:32.644Z,88.46
2023-03-27T13:35:24.802Z,87.60
2023-03-27T13:37:52.665Z,86.17
2023-03-27T13:40:30.768Z,88.17
2023-03-27T13:43:20.434Z,88.42
2023-03-27T13:45:55.022Z,86.72
2023-03-27T13:48:36.368Z,84.91
2023-03-27T13:51:19.488Z,84.36
2023-03-27T13:54:24.605Z,83.14
2023-03-27T13:56:55.579Z,83.60
2023-03-27T14:00:06.672Z,82.23
2023-03-27T14:03:22.111Z,82.33
2023-03-27T14:06:18.320Z,81.44
2023-03-27T14:09:12.901Z,80.98
2023-03-27T14:12:10.128Z,81.87
2023-03-27T14:14:41.291Z,80.08
2023-03-27T14:17:27.586Z,80.97
2023-03-27T14:20:11.755Z,81.13
2023-03-27T14:22:45.658Z,80.32
2023-03-27T14:25:18.554Z,79.25
2023-03-27T14:27:51.060Z,78.28
2023-03-27T14:30:24.840Z,79.65
2023-03-27T14:32:57.419Z,79.96
2023-03-27T14:35:33.120Z,78.82
2023-03-27T14:38:07.255Z,81.11
2023-03-27T14:40:37.165Z,79.44
2023-03-27T14:43:07.125Z,79.16
2023-03-27T14:45:38.578Z,79.33
2023-03-27T14:48:11.877Z,80.02
2023-03-27T14:50:40.962Z,78.16
2023-03-27T14:53:10.359Z,77.46
2023-03-27T14:55:39.327Z,77.98
2023-03-27T14:58:13.264Z,78.57
2023-03-27T15:00:41.900Z,77.40
2023-03-27T15:03:13.770Z,78.55
2023-03-27T15:05:56.460Z,77.93
2023-03-27T15:08:25.646Z,77.91
2023-03-27T15:10:58.234Z,77.45
2023-03-27T15:13:33.806Z,75.92
2023-03-27T15:16:02.797Z,75.72
2023-03-27T15:18:34.818Z,73.92
2023-03-27T15:21:07.036Z,74.49
2023-03-27T15:23:45.771Z,74.51
2023-03-27T15:26:24.187Z,74.02
2023-03-27T15:28:58.869Z,73.61
2023-03-27T15:31:27.796Z,74.15
2023-03-27T15:33:59.146Z,73.26
2023-03-27T15:36:27.246Z,73.03
2023-03-27T15:38:56.050Z,74.25
2023-03-27T15:41:29.801Z,72.86
2023-03-27T15:44:08.062Z,72.63
2023-03-27T15:46:51.591Z,73.65
2023-03-27T15:49:28.591Z,73.85
2023-03-27T15:51:57.500Z,72.50
2023-03-27T15:54:35.034Z,71.71
2023-03-27T15:57:09.560Z,71.00
2023-03-27T15:59:52.029Z,71.69
2023-03-27T16:02:24.144Z,72.27
2023-03-27T16:05:20.125Z,71.47
2023-03-27T16:07:48.609Z,71.94
2023-03-27T16:10:30.770Z,70.84
2023-03-27T16:13:01.262Z,70.23
2023-03-27T16:15:39.855Z,70.16
2023-03-27T16:18:18.361Z,70.59
2023-03-27T16:20:46.548Z,69.96
2023-03-27T16:23:14.688Z,70.82
2023-03-27T16:25:43.752Z,69.17
2023-03-27T16:28:16.787Z,69.68
2023-03-27T16:30:46.372Z,69.63
2023-03-27T16:33:16.462Z,69.48
2023-03-27T16:35:45.298Z,67.50
2023-03-27T16:38:13.906Z,68.18
2023-03-27T16:40:44.318Z,68.03
2023-03-27T16:43:12.301Z,66.76
2023-03-27T16:45:40.224Z,67.84
2023-03-27T16:48:46.156Z,66.97
2023-03-27T16:51:14.439Z,66.08
2023-03-27T16:53:42.772Z,65.83
2023-03-27T16:56:10.662Z,65.09
2023-03-27T16:58:38.927Z,65.25
2023-03-27T17:01:08.418Z,66.30
2023-03-27T17:03:36.696Z,65.19
2023-03-27T17:06:06.800Z,64.64
2023-03-27T17:08:35.660Z,65.19
2023-03-27T17:11:05.172Z,65.07
2023-03-27T17:13:33.468Z,64.90
2023-03-27T17:16:01.922Z,65.11
2023-03-27T17:18:30.081Z,65.67
2023-03-27T17:20:57.899Z,65.19
2023-03-27T17:23:26.161Z,64.38
2023-03-27T17:25:53.914Z,65.17
2023-03-27T17:28:21.946Z,63.91
2023-03-27T17:31:01.039Z,64.80
2023-03-27T17:33:33.346Z,63.20
2023-03-27T17:36:07.431Z,63.00
2023-03-27T17:38:35.671Z,62.74
2023-03-27T17:41:04.253Z,61.43
2023-03-27T17:43:32.393Z,62.35
2023-03-27T17:46:00.414Z,59.52
2023-03-27T17:48:29.153Z,60.33
2023-03-27T17:51:08.327Z,59.54
2023-03-27T17:53:38.385Z,60.17
2023-03-27T17:56:06.597Z,61.35
2023-03-27T17:58:35.854Z,60.78
2023-03-27T18:01:18.620Z,60.74
2023-03-27T18:03:47.408Z,60.94
2023-03-27T18:06:17.104Z,60.59
2023-03-27T18:08:46.460Z,60.95
2023-03-27T18:11:17.742Z,60.29
2023-03-27T18:13:45.742Z,60.42
2023-03-27T18:16:13.632Z,60.03
2023-03-27T18:18:42.045Z,60.44
2023-03-27T18:21:09.918Z,61.16
2023-03-27T18:23:38.064Z,60.47
2023-03-27T18:26:15.027Z,60.85
2023-03-27T18:28:43.357Z,60.33
2023-03-27T18:31:12.377Z,59.13
2023-03-27T18:33:40.647Z,59.86
2023-03-27T18:36:09.072Z,60.28
2023-03-27T18:38:37.648Z,59.10
2023-03-27T18:41:06.336Z,58.84
2023-03-27T18:43:34.761Z,60.01
2023-03-27T18:46:04.536Z,60.26
2023-03-27T18:48:33.901Z,61.29
2023-03-27T18:51:04.270Z,61.25
2023-03-27T18:53:35.340Z,60.34
2023-03-27T18:56:03.504Z,60.49
2023-03-27T18:58:31.602Z,60.84
2023-03-27T19:00:59.977Z,60.52
2023-03-27T19:03:28.877Z,60.63
2023-03-27T19:06:00.008Z,60.61
2023-03-27T19:08:28.517Z,59.19
2023-03-27T19:10:56.838Z,59.73
2023-03-27T19:13:39.873Z,59.99
2023-03-27T19:16:14.871Z,59.52
2023-03-27T19:18:45.366Z,60.11
2023-03-27T19:21:14.054Z,60.25
2023-03-27T19:23:41.975Z,60.23
2023-03-27T19:26:13.414Z,59.92
2023-03-27T19:28:42.855Z,59.92
2023-03-27T19:31:12.341Z,59.62
2023-03-27T19:33:40.702Z,58.94
2023-03-27T19:36:09.364Z,58.48
2023-03-27T19:38:37.754Z,58.11
2023-03-27T19:41:09.125Z,57.63
2023-03-27T19:43:37.844Z,57.89
2023-03-27T19:46:15.945Z,58.16
2023-03-27T19:48:45.488Z,56.42
2023-03-27T19:51:13.950Z,56.31
2023-03-27T19:53:44.455Z,56.75
2023-03-27T19:56:12.777Z,56.16
2023-03-27T19:58:40.793Z,56.14
2023-03-27T20:01:09.718Z,56.21
2023-03-27T20:03:38.775Z,58.15
2023-03-27T20:06:09.107Z,57.26
2023-03-27T20:08:38.591Z,57.61
2023-03-27T20:11:06.674Z,56.10
2023-03-27T20:13:42.533Z,58.38
2023-03-27T20:16:17.551Z,57.80
2023-03-27T20:18:45.936Z,58.41
2023-03-27T20:21:14.238Z,57.96
2023-03-27T20:23:42.493Z,58.74
2023-03-27T20:26:13.257Z,59.03
2023-03-27T20:28:42.174Z,58.48
2023-03-27T20:31:10.323Z,58.62
2023-03-27T20:33:38.852Z,58.35
2023-03-27T20:36:07.057Z,57.87
2023-03-27T20:38:35.084Z,59.08
2023-03-27T20:41:03.858Z,57.94
2023-03-27T20:43:33.171Z,58.61
2023-03-27T20:46:02.860Z,57.70
2023-03-27T20:48:31.239Z,58.04
2023-03-27T20:50:59.141Z,57.32
2023-03-27T20:53:27.805Z,57.25
2023-03-27T20:56:00.312Z,57.07
2023-03-27T20:58:29.127Z,56.41
2023-03-27T21:00:58.051Z,56.40
2023-03-27T21:03:26.150Z,55.96
2023-03-27T21:05:54.231Z,55.20
2023-03-27T21:08:21.874Z,55.46
2023-03-27T21:10:53.807Z,55.86
2023-03-27T21:13:21.912Z,55.64
2023-03-27T21:15:49.652Z,55.20
2023-03-27T21:18:18.478Z,54.80
2023-03-27T21:20:47.216Z,54.80
2023-03-27T21:23:15.134Z,54.24
2023-03-27T21:25:44.287Z,54.58
2023-03-27T21:28:12.778Z,53.87
2023-03-27T21:30:46.284Z,53.25
2023-03-27T21:33:16.448Z,53.85
2023-03-27T21:35:47.910Z,54.25
2023-03-27T21:38:16.978Z,54.16
2023-03-27T21:40:46.632Z,53.82
2023-03-27T21:43:14.721Z,53.67
2023-03-27T21:45:42.885Z,53.06
2023-03-27T21:48:10.773Z,53.95
2023-03-27T21:50:39.688Z,53.42
2023-03-27T21:53:07.718Z,53.80
2023-03-27T21:55:35.358Z,54.14
2023-03-27T21:58:04.690Z,54.26
2023-03-27T22:00:33.962Z,54.09
2023-03-27T22:03:01.933Z,52.74
2023-03-27T22:05:29.995Z,53.93
2023-03-27T22:07:57.775Z,54.24
2023-03-27T22:10:26.789Z,54.59
2023-03-27T22:12:54.514Z,53.97
2023-03-27T22:15:22.169Z,54.10
2023-03-27T22:17:50.146Z,54.16
2023-03-27T22:20:19.818Z,54.96
2023-03-27T22:22:47.506Z,53.82
2023-03-27T22:25:15.401Z,53.85
2023-03-27T22:27:43.531Z,53.70
2023-03-27T22:30:12.576Z,54.46
2023-03-27T22:32:43.698Z,54.39
2023-03-27T22:35:11.318Z,54.31
2023-03-27T22:37:39.399Z,54.73
2023-03-27T22:40:10.130Z,54.20
2023-03-27T22:42:39.041Z,54.17
2023-03-27T22:45:07.433Z,53.78
2023-03-27T22:47:35.146Z,53.88
2023-03-27T22:50:04.112Z,53.63
2023-03-27T22:52:33.395Z,54.09
2023-03-27T22:55:01.027Z,53.65
2023-03-27T22:57:28.820Z,53.66
2023-03-27T22:59:57.878Z,53.56
2023-03-27T23:02:25.745Z,53.53
2023-03-27T23:04:53.371Z,54.41
2023-03-27T23:07:21.417Z,53.96
2023-03-27T23:09:49.825Z,53.61
2023-03-27T23:12:17.492Z,54.44
2023-03-27T23:14:45.457Z,54.47
2023-03-27T23:17:13.158Z,53.84
2023-03-27T23:19:41.569Z,53.93
2023-03-27T23:22:09.555Z,53.96
2023-03-27T23:24:37.220Z,53.27
2023-03-27T23:27:05.105Z,52.96
2023-03-27T23:29:33.544Z,54.60
2023-03-27T23:32:02.985Z,53.84
2023-03-27T23:34:30.910Z,53.23
2023-03-27T23:36:58.946Z,53.92
2023-03-27T23:39:26.613Z,53.73
2023-03-27T23:41:54.435Z,53.09
2023-03-27T23:44:22.361Z,54.02
2023-03-27T23:46:50.041Z,53.72
2023-03-27T23:49:17.756Z,53.60
2023-03-27T23:51:45.714Z,53.13
2023-03-27T23:54:13.607Z,53.14
2023-03-27T23:56:41.256Z,53.05
2023-03-27T23:59:09.169Z,53.92
